createdAt,value
2022-12-19T00:01:45.530Z,61.05
2022-12-19T00:04:15.549Z,57.15
2022-12-19T00:06:43.549Z,59.70
2022-12-19T00:09:12.495Z,57.88
2022-12-19T00:11:40.062Z,59.75
2022-12-19T00:14:08.831Z,65.72
2022-12-19T00:16:35.752Z,52.80
2022-12-19T00:19:03.188Z,52.97
2022-12-19T00:21:34.759Z,66.93
2022-12-19T00:24:03.785Z,63.80
2022-12-19T00:26:37.128Z,68.38
2022-12-19T00:29:12.574Z,66.60
2022-12-19T00:31:41.049Z,63.53
2022-12-19T00:34:09.092Z,69.82
2022-12-19T00:36:35.980Z,71.05
2022-12-19T00:39:06.272Z,73.63
2022-12-19T00:41:37.168Z,73.13
2022-12-19T00:44:11.208Z,76.05
2022-12-19T00:46:38.405Z,65.78
2022-12-19T00:49:06.072Z,63.97
2022-12-19T00:51:36.269Z,74.88
2022-12-19T00:54:04.203Z,73.72
2022-12-19T00:56:37.716Z,68.00
2022-12-19T00:59:07.363Z,66.30
2022-12-19T01:01:37.238Z,71.28
2022-12-19T01:06:58.000Z,65.93
2022-12-19T01:09:33.533Z,59.15
2022-12-19T01:12:20.465Z,61.50
2022-12-19T01:14:54.591Z,58.17
2022-12-19T01:17:25.240Z,61.67
2022-12-19T01:19:54.153Z,57.60
2022-12-19T01:22:22.753Z,52.03
2022-12-19T01:24:49.616Z,50.70
2022-12-19T01:27:16.549Z,58.47
2022-12-19T01:29:51.933Z,68.50
2022-12-19T01:32:20.654Z,69.35
2022-12-19T01:34:47.641Z,61.67
2022-12-19T01:37:14.501Z,48.03
2022-12-19T01:39:41.352Z,70.97
2022-12-19T01:42:22.955Z,75.65
2022-12-19T01:45:11.206Z,70.38
2022-12-19T01:47:48.359Z,60.38
2022-12-19T01:50:26.071Z,62.63
2022-12-19T01:52:54.091Z,64.32
2022-12-19T01:55:21.418Z,62.58
2022-12-19T01:57:50.817Z,75.90
2022-12-19T02:00:17.792Z,78.03
2022-12-19T02:02:50.231Z,61.05
2022-12-19T02:05:17.257Z,72.50
2022-12-19T02:07:45.138Z,64.25
2022-12-19T02:10:12.182Z,72.35
2022-12-19T02:12:43.227Z,75.13
2022-12-19T02:15:14.321Z,79.28
2022-12-19T02:18:06.232Z,67.50
2022-12-19T02:21:00.920Z,70.25
2022-12-19T02:24:01.046Z,66.03
2022-12-19T02:26:44.655Z,66.53
2022-12-19T02:29:20.760Z,76.50
2022-12-19T02:32:03.683Z,76.75
2022-12-19T02:34:59.876Z,65.70
2022-12-19T02:37:49.648Z,79.53
2022-12-19T02:40:21.733Z,70.40
2022-12-19T02:42:54.608Z,78.10
2022-12-19T02:48:03.298Z,66.80
2022-12-19T02:50:51.094Z,64.15
2022-12-19T02:53:22.410Z,69.80
2022-12-19T02:56:13.394Z,67.72
2022-12-19T02:59:02.779Z,70.82
2022-12-19T03:01:40.084Z,70.88
2022-12-19T03:04:16.412Z,66.88
2022-12-19T03:06:57.302Z,71.25
2022-12-19T03:09:46.158Z,66.13
2022-12-19T03:12:47.848Z,56.40
2022-12-19T03:15:16.610Z,61.75
2022-12-19T03:17:44.208Z,70.30
2022-12-19T03:20:23.951Z,64.55
2022-12-19T03:22:51.186Z,61.22
2022-12-19T03:25:20.855Z,55.58
2022-12-19T03:27:50.035Z,68.57
2022-12-19T03:30:17.076Z,57.67
2022-12-19T03:32:46.725Z,62.35
2022-12-19T03:35:27.547Z,68.65
2022-12-19T03:37:57.844Z,55.97
2022-12-19T03:40:26.196Z,53.15
2022-12-19T03:43:12.664Z,50.30
2022-12-19T03:45:46.030Z,53.38
2022-12-19T03:48:22.014Z,55.97
2022-12-19T03:51:09.349Z,50.50
2022-12-19T03:54:01.227Z,53.72
2022-12-19T03:56:38.510Z,54.20
2022-12-19T03:59:10.024Z,58.75
2022-12-19T04:01:38.699Z,49.17
2022-12-19T04:04:06.710Z,53.08
2022-12-19T04:06:35.346Z,53.47
2022-12-19T04:09:03.191Z,45.78
2022-12-19T04:11:39.504Z,40.75
2022-12-19T04:14:14.441Z,42.05
2022-12-19T04:16:50.465Z,44.20
2022-12-19T04:19:56.515Z,34.78
2022-12-19T04:22:29.463Z,50.25
2022-12-19T04:24:59.285Z,51.45
2022-12-19T04:27:28.275Z,46.45
2022-12-19T04:29:59.294Z,45.95
2022-12-19T04:32:28.424Z,40.80
2022-12-19T04:34:55.479Z,46.63
2022-12-19T04:37:22.478Z,39.90
2022-12-19T04:39:49.441Z,43.25
2022-12-19T04:42:16.757Z,41.75
2022-12-19T04:44:43.608Z,37.30
2022-12-19T04:47:10.472Z,44.05
2022-12-19T04:49:37.335Z,42.42
2022-12-19T04:52:04.341Z,47.80
2022-12-19T04:54:33.073Z,41.45
2022-12-19T04:56:59.937Z,39.25
2022-12-19T04:59:26.907Z,51.63
2022-12-19T05:01:53.968Z,40.28
2022-12-19T05:04:20.947Z,44.55
2022-12-19T05:06:47.891Z,36.60
2022-12-19T05:09:14.819Z,34.42
2022-12-19T05:11:41.712Z,46.03
2022-12-19T05:14:09.316Z,39.67
2022-12-19T05:16:36.215Z,41.13
2022-12-19T05:19:03.119Z,44.95
2022-12-19T05:21:30.050Z,39.67
2022-12-19T05:23:56.969Z,36.50
2022-12-19T05:26:23.922Z,38.22
2022-12-19T05:28:50.855Z,30.63
2022-12-19T05:31:20.450Z,35.40
2022-12-19T05:33:48.907Z,32.13
2022-12-19T05:36:17.312Z,28.25
2022-12-19T05:38:44.848Z,35.50
2022-12-19T05:41:14.375Z,35.22
2022-12-19T05:43:41.990Z,30.88
2022-12-19T05:46:09.409Z,35.63
2022-12-19T05:48:37.388Z,30.98
2022-12-19T05:51:04.650Z,32.05
2022-12-19T05:53:31.671Z,36.03
2022-12-19T05:56:11.073Z,30.30
2022-12-19T05:58:39.216Z,33.78
2022-12-19T06:01:11.371Z,35.47
2022-12-19T06:03:38.517Z,32.08
2022-12-19T06:06:07.669Z,33.90
2022-12-19T06:08:34.923Z,38.55
2022-12-19T06:11:04.104Z,35.72
2022-12-19T06:13:31.687Z,34.10
2022-12-19T06:16:04.303Z,33.97
2022-12-19T06:18:31.817Z,30.55
2022-12-19T06:21:02.066Z,36.42
2022-12-19T06:23:34.253Z,34.17
2022-12-19T06:31:44.585Z,30.58
2022-12-19T06:34:39.393Z,29.35
2022-12-19T06:37:08.262Z,26.08
2022-12-19T06:39:37.018Z,23.88
2022-12-19T06:42:22.705Z,30.98
2022-12-19T06:44:51.010Z,26.75
2022-12-19T06:47:18.559Z,31.35
2022-12-19T06:49:45.476Z,22.77
2022-12-19T06:52:12.599Z,26.05
2022-12-19T06:54:39.644Z,22.58
2022-12-19T06:57:06.743Z,21.30
2022-12-19T06:59:33.658Z,23.23
2022-12-19T07:02:08.587Z,23.52
2022-12-19T07:04:48.216Z,26.13
2022-12-19T07:07:15.239Z,30.50
2022-12-19T07:09:42.182Z,21.67
2022-12-19T07:12:09.394Z,24.20
2022-12-19T07:14:36.313Z,28.33
2022-12-19T07:17:03.806Z,28.23
2022-12-19T07:19:32.593Z,24.00
2022-12-19T07:22:01.906Z,26.08
2022-12-19T07:24:29.870Z,25.73
2022-12-19T07:26:57.403Z,20.73
2022-12-19T07:29:24.467Z,22.80
2022-12-19T07:31:51.500Z,21.75
2022-12-19T07:34:18.438Z,21.80
2022-12-19T07:36:45.418Z,26.00
2022-12-19T07:39:12.420Z,22.02
2022-12-19T07:41:39.971Z,24.73
2022-12-19T07:44:07.462Z,21.15
2022-12-19T07:46:34.858Z,23.65
2022-12-19T07:49:01.865Z,27.25
2022-12-19T07:51:29.026Z,21.35
2022-12-19T07:53:56.051Z,20.92
2022-12-19T07:56:23.424Z,24.92
2022-12-19T07:58:52.947Z,19.92
2022-12-19T08:01:20.581Z,13.57
2022-12-19T08:03:47.851Z,22.95
2022-12-19T08:06:15.361Z,16.83
2022-12-19T08:08:42.411Z,19.75
2022-12-19T08:11:18.430Z,22.27
2022-12-19T08:13:47.124Z,18.90
2022-12-19T08:16:14.979Z,21.00
2022-12-19T08:18:42.271Z,17.50
2022-12-19T08:21:10.816Z,17.92
2022-12-19T08:23:41.326Z,18.23
2022-12-19T08:26:14.186Z,16.65
2022-12-19T08:28:45.164Z,19.77
2022-12-19T08:31:17.308Z,19.50
2022-12-19T08:36:14.581Z,15.45
2022-12-19T08:38:41.934Z,11.60
2022-12-19T08:41:09.568Z,14.25
2022-12-19T08:43:36.797Z,18.23
2022-12-19T08:46:04.161Z,14.20
2022-12-19T08:48:35.586Z,17.02
2022-12-19T08:51:05.700Z,17.27
2022-12-19T08:53:35.895Z,18.70
2022-12-19T08:56:21.676Z,14.38
2022-12-19T08:58:51.162Z,20.15
2022-12-19T09:01:20.385Z,20.17
2022-12-19T09:04:13.388Z,18.17
2022-12-19T09:06:34.996Z,16.33
2022-12-19T09:09:03.636Z,15.27
2022-12-19T09:11:31.429Z,20.20
2022-12-19T09:13:59.482Z,14.57
2022-12-19T09:16:28.407Z,16.67
2022-12-19T09:18:59.081Z,14.15
2022-12-19T09:21:31.951Z,15.05
2022-12-19T09:24:07.451Z,13.70
2022-12-19T09:26:35.577Z,12.93
2022-12-19T09:29:06.724Z,16.08
2022-12-19T09:31:47.299Z,17.00
2022-12-19T09:34:14.474Z,12.90
2022-12-19T09:36:41.926Z,15.02
2022-12-19T09:39:12.538Z,12.27
2022-12-19T09:42:10.904Z,14.48
2022-12-19T09:45:04.161Z,10.93
2022-12-19T09:47:35.204Z,13.30
2022-12-19T09:50:13.065Z,17.73
2022-12-19T09:52:59.405Z,11.85
2022-12-19T09:55:36.771Z,20.45
2022-12-19T09:58:32.520Z,17.15
2022-12-19T10:01:09.020Z,15.98
2022-12-19T10:03:41.298Z,13.05
2022-12-19T10:07:12.467Z,11.10
2022-12-19T10:11:45.831Z,16.90
2022-12-19T10:12:43.381Z,14.13
2022-12-19T10:15:47.258Z,15.23
2022-12-19T10:18:46.646Z,20.38
2022-12-19T10:21:59.534Z,17.58
2022-12-19T10:24:34.777Z,17.38
2022-12-19T10:27:15.805Z,12.40
2022-12-19T10:29:56.988Z,15.13
2022-12-19T10:32:36.758Z,16.90
2022-12-19T10:35:16.443Z,12.50
2022-12-19T10:38:11.434Z,12.52
2022-12-19T10:40:52.012Z,16.52
2022-12-19T10:43:32.836Z,8.13
2022-12-19T10:46:11.575Z,10.30
2022-12-19T10:48:38.520Z,13.43
2022-12-19T10:51:10.315Z,11.07
2022-12-19T10:53:37.350Z,9.13
2022-12-19T10:56:23.190Z,13.43
2022-12-19T10:59:01.349Z,8.75
2022-12-19T11:01:34.626Z,8.95
2022-12-19T11:04:22.950Z,9.20
2022-12-19T11:07:03.615Z,11.68
2022-12-19T11:09:30.664Z,10.98
2022-12-19T11:16:42.098Z,9.63
2022-12-19T11:24:18.549Z,12.63
2022-12-19T11:29:42.672Z,15.88
2022-12-19T11:30:38.642Z,11.85
2022-12-19T11:32:44.497Z,7.80
2022-12-19T11:35:24.754Z,9.35
2022-12-19T11:38:00.567Z,9.00
2022-12-19T11:40:51.152Z,9.05
2022-12-19T11:44:02.070Z,12.88
2022-12-19T11:46:46.737Z,8.30
2022-12-19T11:49:21.820Z,9.43
2022-12-19T11:52:00.935Z,7.45
2022-12-19T11:54:51.875Z,8.93
2022-12-19T11:57:19.402Z,9.95
2022-12-19T11:59:46.937Z,11.48
2022-12-19T12:02:19.933Z,12.45
2022-12-19T12:05:05.828Z,8.77
2022-12-19T12:08:55.228Z,9.32
2022-12-19T12:16:46.630Z,47.65
2022-12-19T12:21:17.186Z,27.30
2022-12-19T12:31:13.693Z,6.97
2022-12-19T12:31:27.718Z,7.30
2022-12-19T12:31:48.509Z,6.97
2022-12-19T12:31:55.172Z,18.50
2022-12-19T12:32:01.912Z,13.20
2022-12-19T12:35:16.429Z,6.25
2022-12-19T12:37:03.628Z,10.73
2022-12-19T12:38:22.691Z,8.43
2022-12-19T12:41:19.727Z,5.85
2022-12-19T12:44:05.240Z,7.85
2022-12-19T12:46:40.144Z,9.73
2022-12-19T12:49:20.746Z,5.65
2022-12-19T12:51:50.289Z,5.45
2022-12-19T12:54:18.966Z,9.13
2022-12-19T12:56:48.992Z,7.05
2022-12-19T12:59:20.412Z,7.65
2022-12-19T13:02:08.252Z,7.45
2022-12-19T13:04:57.348Z,11.75
2022-12-19T13:07:51.365Z,5.88
2022-12-19T13:10:30.594Z,5.53
2022-12-19T13:13:22.588Z,7.47
2022-12-19T13:15:52.672Z,10.38
2022-12-19T13:18:35.082Z,9.30
2022-12-19T13:23:29.891Z,8.40
2022-12-19T13:25:57.287Z,5.78
2022-12-19T13:28:24.138Z,4.72
2022-12-19T13:31:18.907Z,4.93
2022-12-19T13:34:17.502Z,4.28
2022-12-19T13:40:01.314Z,3.67
2022-12-19T13:40:09.121Z,5.20
2022-12-19T13:43:10.286Z,5.13
2022-12-19T13:45:41.439Z,4.88
2022-12-19T13:48:16.463Z,6.15
2022-12-19T13:50:49.382Z,5.63
2022-12-19T13:53:23.819Z,7.45
2022-12-19T13:56:14.119Z,4.97
2022-12-19T13:58:57.710Z,8.23
2022-12-19T14:01:27.902Z,4.68
2022-12-19T14:03:57.659Z,5.20
2022-12-19T14:06:44.230Z,7.05
2022-12-19T14:11:30.940Z,4.25
2022-12-19T14:14:00.398Z,5.68
2022-12-19T14:15:52.115Z,10.18
2022-12-19T14:18:43.474Z,12.70
2022-12-19T14:22:11.605Z,4.15
2022-12-19T14:24:29.289Z,8.10
2022-12-19T14:28:26.979Z,5.95
2022-12-19T14:30:29.330Z,6.22
2022-12-19T14:33:45.282Z,5.25
2022-12-19T14:36:10.603Z,6.53
2022-12-19T14:39:23.899Z,7.70
2022-12-19T14:42:00.542Z,6.57
2022-12-19T14:52:34.906Z,4.88
2022-12-19T14:53:51.109Z,6.30
2022-12-19T14:54:28.611Z,6.28
2022-12-19T14:54:50.269Z,7.25
2022-12-19T14:56:57.660Z,5.75
2022-12-19T14:59:05.430Z,4.78
2022-12-19T15:01:35.168Z,5.53
2022-12-19T15:04:51.954Z,5.60
2022-12-19T15:07:06.767Z,4.90
2022-12-19T15:11:06.816Z,7.30
2022-12-19T15:14:54.140Z,5.60
2022-12-19T15:16:04.694Z,6.40
2022-12-19T15:18:42.367Z,4.43
2022-12-19T15:21:14.778Z,5.90
2022-12-19T15:23:43.800Z,7.05
2022-12-19T15:26:28.596Z,7.80
2022-12-19T15:28:57.039Z,4.30
2022-12-19T15:31:29.949Z,8.30
2022-12-19T15:36:43.987Z,5.40
2022-12-19T15:39:10.955Z,6.60
2022-12-19T15:41:37.899Z,11.32
2022-12-19T15:44:15.154Z,6.30
2022-12-19T15:46:48.306Z,5.40
2022-12-19T15:49:17.222Z,5.93
2022-12-19T15:51:44.559Z,6.18
2022-12-19T15:56:58.396Z,7.03
2022-12-19T15:59:26.684Z,5.28
2022-12-19T16:01:57.548Z,7.07
2022-12-19T16:04:25.741Z,6.70
2022-12-19T16:06:52.884Z,9.65
2022-12-19T16:09:25.533Z,8.45
2022-12-19T16:11:53.881Z,5.32
2022-12-19T16:14:25.982Z,6.43
2022-12-19T16:16:55.279Z,4.45
2022-12-19T16:19:23.622Z,7.25
2022-12-19T16:21:51.323Z,11.05
2022-12-19T16:24:18.184Z,4.22
2022-12-19T16:26:53.914Z,6.05
2022-12-19T16:29:25.232Z,5.65
2022-12-19T16:31:52.555Z,5.43
2022-12-19T16:34:23.068Z,8.77
2022-12-19T16:36:50.494Z,4.03
2022-12-19T16:39:17.871Z,4.85
2022-12-19T16:41:45.495Z,4.63
2022-12-19T16:44:21.565Z,4.38
2022-12-19T16:46:51.249Z,7.05
2022-12-19T16:49:22.991Z,5.40
2022-12-19T16:51:50.317Z,4.80
2022-12-19T16:54:18.525Z,5.85
2022-12-19T16:56:51.537Z,5.03
2022-12-19T16:59:22.679Z,5.72
2022-12-19T17:01:51.055Z,5.65
2022-12-19T17:04:22.108Z,10.48
2022-12-19T17:06:50.214Z,6.63
2022-12-19T17:09:19.814Z,5.82
2022-12-19T17:11:56.732Z,5.93
2022-12-19T17:14:27.068Z,7.88
2022-12-19T17:16:55.738Z,5.90
2022-12-19T17:19:39.152Z,5.03
2022-12-19T17:22:17.443Z,15.95
2022-12-19T17:24:46.712Z,7.07
2022-12-19T17:27:14.307Z,6.10
2022-12-19T17:29:41.242Z,6.80
2022-12-19T17:32:10.424Z,7.03
2022-12-19T17:34:37.532Z,6.63
2022-12-19T17:37:05.304Z,5.88
2022-12-19T17:39:34.099Z,8.63
2022-12-19T17:42:16.610Z,4.63
2022-12-19T17:44:43.534Z,4.30
2022-12-19T17:47:17.976Z,4.55
2022-12-19T17:49:45.558Z,5.07
2022-12-19T17:52:15.835Z,5.43
2022-12-19T17:54:43.065Z,7.15
2022-12-19T17:57:14.458Z,5.55
2022-12-19T17:59:42.188Z,6.83
2022-12-19T18:02:24.854Z,9.88
2022-12-19T18:04:52.798Z,6.88
2022-12-19T18:07:19.787Z,7.35
2022-12-19T18:09:46.793Z,8.35
2022-12-19T18:12:13.908Z,5.72
2022-12-19T18:14:40.853Z,4.45
2022-12-19T18:17:10.328Z,5.88
2022-12-19T18:19:37.320Z,3.97
2022-12-19T18:22:12.149Z,5.28
2022-12-19T18:24:39.075Z,5.43
2022-12-19T18:27:06.086Z,4.97
2022-12-19T18:29:32.972Z,4.22
2022-12-19T18:31:59.942Z,4.95
2022-12-19T18:34:29.851Z,7.38
2022-12-19T18:36:56.868Z,7.00
2022-12-19T18:39:26.508Z,6.18
2022-12-19T18:41:54.205Z,6.85
2022-12-19T18:44:23.038Z,7.45
2022-12-19T18:46:51.521Z,6.38
2022-12-19T18:49:19.531Z,6.70
2022-12-19T18:51:46.633Z,5.43
2022-12-19T18:54:22.251Z,4.97
2022-12-19T18:56:49.259Z,5.85
2022-12-19T18:59:16.133Z,4.45
2022-12-19T19:01:48.860Z,9.63
2022-12-19T19:04:17.826Z,6.68
2022-12-19T19:06:51.609Z,6.97
2022-12-19T19:09:20.705Z,7.22
2022-12-19T19:11:47.707Z,9.32
2022-12-19T19:14:14.681Z,4.93
2022-12-19T19:16:41.611Z,9.77
2022-12-19T19:19:14.390Z,3.67
2022-12-19T19:21:42.627Z,4.32
2022-12-19T19:24:14.923Z,7.00
2022-12-19T19:29:09.866Z,8.55
2022-12-19T19:31:40.876Z,8.02
2022-12-19T19:34:43.990Z,9.07
2022-12-19T19:37:13.811Z,4.47
2022-12-19T19:39:40.735Z,3.65
2022-12-19T19:42:07.802Z,3.97
2022-12-19T19:44:34.686Z,3.88
2022-12-19T19:47:01.966Z,7.15
2022-12-19T19:49:28.887Z,4.97
2022-12-19T19:52:02.255Z,6.47
2022-12-19T19:54:30.569Z,4.75
2022-12-19T19:56:57.564Z,6.97
2022-12-19T19:59:24.559Z,3.60
2022-12-19T20:01:54.369Z,8.38
2022-12-19T20:04:21.472Z,7.63
2022-12-19T20:06:48.432Z,5.47
2022-12-19T20:09:15.329Z,4.15
2022-12-19T20:11:42.270Z,3.75
2022-12-19T20:14:09.174Z,7.97
2022-12-19T20:16:36.099Z,6.35
2022-12-19T20:19:03.163Z,6.13
2022-12-19T20:21:30.816Z,4.45
2022-12-19T20:23:57.733Z,4.60
2022-12-19T20:26:24.665Z,4.45
2022-12-19T20:28:51.909Z,5.32
2022-12-19T20:31:22.202Z,6.05
2022-12-19T20:33:50.688Z,4.22
2022-12-19T20:36:19.713Z,3.83
2022-12-19T20:38:47.186Z,5.22
2022-12-19T20:41:14.933Z,4.43
2022-12-19T20:43:42.518Z,4.32
2022-12-19T20:46:20.270Z,6.85
2022-12-19T20:48:48.368Z,4.25
2022-12-19T20:51:16.699Z,5.43
2022-12-19T20:53:43.921Z,7.15
2022-12-19T20:56:17.367Z,8.90
2022-12-19T20:58:44.875Z,4.68
2022-12-19T21:01:14.470Z,10.30
2022-12-19T21:03:42.053Z,4.72
2022-12-19T21:06:11.014Z,5.55
2022-12-19T21:08:38.777Z,5.22
2022-12-19T21:11:07.642Z,6.65
2022-12-19T21:13:35.790Z,4.90
2022-12-19T21:16:04.376Z,5.88
2022-12-19T21:18:31.306Z,8.90
2022-12-19T21:20:59.429Z,3.92
2022-12-19T21:23:27.091Z,5.65
2022-12-19T21:25:57.892Z,5.78
2022-12-19T21:28:25.207Z,4.60
2022-12-19T21:31:07.401Z,13.13
2022-12-19T21:33:34.741Z,3.63
2022-12-19T21:36:19.015Z,6.10
2022-12-19T21:38:52.894Z,10.02
2022-12-19T21:41:20.380Z,6.20
2022-12-19T21:43:49.244Z,5.47
2022-12-19T21:46:17.070Z,8.70
2022-12-19T21:48:46.289Z,5.80
2022-12-19T21:51:14.791Z,4.95
2022-12-19T21:53:42.389Z,6.22
2022-12-19T21:56:39.486Z,4.97
2022-12-19T21:59:10.274Z,13.90
2022-12-19T22:01:37.464Z,7.38
2022-12-19T22:04:07.419Z,7.55
2022-12-19T22:06:37.254Z,7.05
2022-12-19T22:09:07.099Z,5.65
2022-12-19T22:11:35.972Z,4.80
2022-12-19T22:14:05.060Z,8.07
2022-12-19T22:16:33.642Z,4.88
2022-12-19T22:19:00.886Z,7.32
2022-12-19T22:21:28.086Z,5.57
2022-12-19T22:23:58.820Z,5.32
2022-12-19T22:26:26.806Z,7.13
2022-12-19T22:28:55.650Z,3.75
2022-12-19T22:31:29.092Z,5.97
2022-12-19T22:33:58.704Z,5.47
2022-12-19T22:36:28.671Z,5.70
2022-12-19T22:38:57.294Z,7.78
2022-12-19T22:41:24.739Z,3.72
2022-12-19T22:43:52.819Z,4.18
2022-12-19T22:46:28.701Z,4.30
2022-12-19T22:48:58.095Z,7.20
2022-12-19T22:51:26.563Z,5.40
2022-12-19T22:53:54.189Z,4.10
2022-12-19T22:56:24.983Z,5.30
2022-12-19T22:58:53.349Z,4.53
2022-12-19T23:01:21.476Z,3.58
2022-12-19T23:03:50.604Z,7.45
2022-12-19T23:06:18.550Z,4.53
2022-12-19T23:08:46.184Z,5.78
2022-12-19T23:11:17.179Z,7.10
2022-12-19T23:13:45.586Z,6.00
2022-12-19T23:16:13.308Z,5.50
2022-12-19T23:18:41.108Z,6.72
2022-12-19T23:21:14.551Z,5.53
2022-12-19T23:23:43.442Z,4.55
2022-12-19T23:26:16.027Z,6.78
2022-12-19T23:28:52.341Z,6.55
2022-12-19T23:31:19.933Z,5.13
2022-12-19T23:33:47.080Z,3.60
2022-12-19T23:36:14.340Z,3.65
2022-12-19T23:38:43.304Z,4.35
2022-12-19T23:41:12.861Z,4.95
2022-12-19T23:43:40.538Z,7.18
2022-12-19T23:46:15.889Z,5.18
2022-12-19T23:48:43.714Z,7.75
2022-12-19T23:51:16.496Z,6.03
2022-12-19T23:53:43.935Z,3.47
2022-12-19T23:56:20.112Z,3.10
2022-12-19T23:58:47.102Z,5.32
